Main page
METAR-TAF:

METAR-TAF

Airports :

Beauvais–Tillé Airport

Beauvais, France

latitude: 49-28N, longitude: 002-07E, elevation: 109 m

Current weather observation

The report was made 24 minutes ago, at 22:30 UTC
Wind 10 kt from the South/Southeast
Temperature 7°C
Humidity 93%
Pressure 1001 hPa
Visibility 10 km or more
Few clouds at a height of 1400 ft
Overcast at a height of 5000 ft
light rain

METAR: LFOB 212230Z AUTO 16010KT 9999 -RA FEW014 OVC050 07/06 Q1001 TEMPO 3000 RA BECMG OVC012

Time: 23:54 (22:54 UTC)

Forecast

The report was made 1 hour and 42 minutes ago, at 21:12 UTC
Forecast valid from 21 at 21 UTC to 22 at 18 UTC
Wind 10 kt from the Southeast
Visibility 10 km or more
Overcast at a height of 1200 ft
Temporary
from 21 at 21 UTC to 21 at 24 UTC
Visibility: 3000 m
Overcast at a height of 400 ft
rain
Becoming
from 22 at 09 UTC to 22 at 11 UTC

TAF: LFOB 212112Z 2121/2218 14010KT 9999 OVC012 TEMPO 2121/2124 3000 RA OVC004 BECMG 2209/2211 NSC

Weather observations and forecasts of more than 4000 airports (METAR and TAF reports).

The available stations are represented by yellow and red dots on the map.

Hover mouse over dot to see the name of the station.

Then click to see weather observations and forecasts.

To change the map : click on the green buttons with a black cross to zoom in, on the green button with a dash to zoom out, or on the green arrows for adjacent maps.


METAR-TAF: